Indianapolis, Indiana
Traffic Map
Current Weather Conditions
Indianapolis, Indiana
Broken Clouds Light Rain
Broken Clouds
73°
Feels Like: 73°
Wind Chill: 73° Ceiling: 10000
Heat Index: 73° Visibility: 10mi
Dew Point: 61° Wind: 9mph
Humidity: 66% Direction: 300° (WNW)
Pressure: 30.05in Gusts: 0mph
Raw Report DataKIND 301854Z 30008KT 10SM -RA SCT045 SCT060CB BKN100 23/16 A3005 RMK AO2 WSHFT 1826 RAB31 SLP173 CB E MOV SE TCU DSNT NE S W P0000 T02280161
Traffic Incident Summary
Active as of:
Severity:
Category:
InformationThere was an issue retrieving the traffic information for this location. Please try a different location or try again shortly.
Advertisements
Track Severe Weather on mobile